sensor_id;sensor_type;location;lat;lon;timestamp;P1;durP1;ratioP1;P2;durP2;ratioP2
10166;SDS011;62970;53.130;8.244;2022-12-07T00:00:16;8.07;;;7.10;;
10166;SDS011;62970;53.130;8.244;2022-12-07T00:02:47;8.67;;;6.90;;
10166;SDS011;62970;53.130;8.244;2022-12-07T00:05:17;8.97;;;7.00;;
10166;SDS011;62970;53.130;8.244;2022-12-07T00:07:47;8.83;;;7.47;;
10166;SDS011;62970;53.130;8.244;2022-12-07T00:10:18;7.77;;;7.03;;
10166;SDS011;62970;53.130;8.244;2022-12-07T00:12:50;7.63;;;6.93;;
10166;SDS011;62970;53.130;8.244;2022-12-07T00:15:19;7.80;;;6.60;;
10166;SDS011;62970;53.130;8.244;2022-12-07T00:17:49;6.90;;;6.20;;
10166;SDS011;62970;53.130;8.244;2022-12-07T00:20:20;7.83;;;7.00;;
10166;SDS011;62970;53.130;8.244;2022-12-07T00:22:50;6.90;;;6.20;;
10166;SDS011;62970;53.130;8.244;2022-12-07T00:25:20;9.07;;;6.33;;
10166;SDS011;62970;53.130;8.244;2022-12-07T00:27:53;6.70;;;6.00;;
10166;SDS011;62970;53.130;8.244;2022-12-07T00:30:23;6.00;;;5.50;;
10166;SDS011;62970;53.130;8.244;2022-12-07T00:32:52;6.43;;;5.73;;
10166;SDS011;62970;53.130;8.244;2022-12-07T00:35:22;6.80;;;5.67;;
10166;SDS011;62970;53.130;8.244;2022-12-07T00:37:52;6.67;;;5.40;;
10166;SDS011;62970;53.130;8.244;2022-12-07T00:40:21;6.03;;;5.43;;
10166;SDS011;62970;53.130;8.244;2022-12-07T00:42:53;6.63;;;5.90;;
10166;SDS011;62970;53.130;8.244;2022-12-07T00:45:23;6.63;;;5.37;;
10166;SDS011;62970;53.130;8.244;2022-12-07T00:47:52;7.07;;;5.57;;
10166;SDS011;62970;53.130;8.244;2022-12-07T00:50:22;6.23;;;5.47;;
10166;SDS011;62970;53.130;8.244;2022-12-07T00:52:52;5.87;;;4.93;;
10166;SDS011;62970;53.130;8.244;2022-12-07T00:55:21;7.30;;;5.07;;
10166;SDS011;62970;53.130;8.244;2022-12-07T00:57:55;5.77;;;4.80;;
10166;SDS011;62970;53.130;8.244;2022-12-07T01:00:24;5.80;;;4.60;;
10166;SDS011;62970;53.130;8.244;2022-12-07T01:02:54;6.93;;;4.53;;
10166;SDS011;62970;53.130;8.244;2022-12-07T01:05:24;5.10;;;4.53;;
10166;SDS011;62970;53.130;8.244;2022-12-07T01:07:53;4.70;;;4.13;;
10166;SDS011;62970;53.130;8.244;2022-12-07T01:10:23;5.07;;;3.97;;
10166;SDS011;62970;53.130;8.244;2022-12-07T01:12:58;4.93;;;4.03;;
10166;SDS011;62970;53.130;8.244;2022-12-07T01:15:27;4.53;;;3.60;;
10166;SDS011;62970;53.130;8.244;2022-12-07T01:17:57;4.97;;;3.50;;
10166;SDS011;62970;53.130;8.244;2022-12-07T01:20:28;5.37;;;3.27;;
10166;SDS011;62970;53.130;8.244;2022-12-07T01:22:57;4.40;;;3.60;;
10166;SDS011;62970;53.130;8.244;2022-12-07T01:25:27;4.57;;;3.37;;
10166;SDS011;62970;53.130;8.244;2022-12-07T01:27:59;3.77;;;3.37;;
10166;SDS011;62970;53.130;8.244;2022-12-07T01:30:28;5.37;;;3.53;;
10166;SDS011;62970;53.130;8.244;2022-12-07T01:32:58;3.83;;;3.37;;
10166;SDS011;62970;53.130;8.244;2022-12-07T01:35:27;5.33;;;3.90;;
10166;SDS011;62970;53.130;8.244;2022-12-07T01:37:57;4.50;;;3.50;;
10166;SDS011;62970;53.130;8.244;2022-12-07T01:40:27;5.40;;;4.00;;
10166;SDS011;62970;53.130;8.244;2022-12-07T01:48:19;4.47;;;3.93;;
10166;SDS011;62970;53.130;8.244;2022-12-07T01:50:53;5.70;;;3.80;;
10166;SDS011;62970;53.130;8.244;2022-12-07T01:53:29;5.67;;;4.17;;
10166;SDS011;62970;53.130;8.244;2022-12-07T01:56:01;5.00;;;4.00;;
10166;SDS011;62970;53.130;8.244;2022-12-07T01:58:31;5.63;;;4.20;;
10166;SDS011;62970;53.130;8.244;2022-12-07T02:01:03;7.27;;;4.50;;
10166;SDS011;62970;53.130;8.244;2022-12-07T02:03:34;6.43;;;3.97;;
10166;SDS011;62970;53.130;8.244;2022-12-07T02:06:07;5.60;;;4.33;;
10166;SDS011;62970;53.130;8.244;2022-12-07T02:08:40;4.77;;;4.10;;
10166;SDS011;62970;53.130;8.244;2022-12-07T02:11:11;6.33;;;4.10;;
10166;SDS011;62970;53.130;8.244;2022-12-07T02:13:41;6.27;;;3.90;;
10166;SDS011;62970;53.130;8.244;2022-12-07T02:16:18;6.27;;;4.13;;
10166;SDS011;62970;53.130;8.244;2022-12-07T02:19:00;6.47;;;4.20;;
10166;SDS011;62970;53.130;8.244;2022-12-07T02:21:55;5.97;;;4.33;;
10166;SDS011;62970;53.130;8.244;2022-12-07T02:24:40;7.60;;;4.03;;
10166;SDS011;62970;53.130;8.244;2022-12-07T02:27:34;5.00;;;4.23;;
10166;SDS011;62970;53.130;8.244;2022-12-07T02:30:17;6.10;;;4.30;;
10166;SDS011;62970;53.130;8.244;2022-12-07T02:32:51;7.37;;;4.60;;
10166;SDS011;62970;53.130;8.244;2022-12-07T02:35:28;5.03;;;4.47;;
10166;SDS011;62970;53.130;8.244;2022-12-07T02:38:02;6.43;;;4.87;;
10166;SDS011;62970;53.130;8.244;2022-12-07T02:40:43;6.27;;;4.67;;
10166;SDS011;62970;53.130;8.244;2022-12-07T02:43:19;6.43;;;5.00;;
10166;SDS011;62970;53.130;8.244;2022-12-07T02:45:55;5.77;;;4.77;;
10166;SDS011;62970;53.130;8.244;2022-12-07T02:48:29;5.50;;;4.63;;
10166;SDS011;62970;53.130;8.244;2022-12-07T02:51:01;5.50;;;4.60;;
10166;SDS011;62970;53.130;8.244;2022-12-07T02:53:33;6.40;;;4.77;;
10166;SDS011;62970;53.130;8.244;2022-12-07T02:56:06;4.90;;;4.40;;
10166;SDS011;62970;53.130;8.244;2022-12-07T02:58:48;5.30;;;4.70;;
10166;SDS011;62970;53.130;8.244;2022-12-07T03:01:35;6.00;;;4.50;;
10166;SDS011;62970;53.130;8.244;2022-12-07T03:04:19;5.43;;;4.40;;
10166;SDS011;62970;53.130;8.244;2022-12-07T03:07:11;6.00;;;4.10;;
10166;SDS011;62970;53.130;8.244;2022-12-07T03:09:52;5.40;;;4.20;;
10166;SDS011;62970;53.130;8.244;2022-12-07T03:12:31;5.20;;;4.20;;
10166;SDS011;62970;53.130;8.244;2022-12-07T03:15:12;4.77;;;4.20;;
10166;SDS011;62970;53.130;8.244;2022-12-07T03:17:57;6.50;;;4.00;;
10166;SDS011;62970;53.130;8.244;2022-12-07T03:20:31;5.40;;;3.87;;
10166;SDS011;62970;53.130;8.244;2022-12-07T03:23:05;3.80;;;3.37;;
10166;SDS011;62970;53.130;8.244;2022-12-07T03:25:38;4.47;;;3.10;;
10166;SDS011;62970;53.130;8.244;2022-12-07T03:28:11;5.40;;;2.87;;
10166;SDS011;62970;53.130;8.244;2022-12-07T03:30:47;4.70;;;3.10;;
10166;SDS011;62970;53.130;8.244;2022-12-07T03:33:26;4.33;;;2.60;;
10166;SDS011;62970;53.130;8.244;2022-12-07T03:36:01;3.07;;;2.23;;
10166;SDS011;62970;53.130;8.244;2022-12-07T03:38:38;3.77;;;2.30;;
10166;SDS011;62970;53.130;8.244;2022-12-07T03:41:14;3.83;;;2.20;;
10166;SDS011;62970;53.130;8.244;2022-12-07T03:43:51;3.77;;;1.67;;
10166;SDS011;62970;53.130;8.244;2022-12-07T03:46:24;2.33;;;2.13;;
10166;SDS011;62970;53.130;8.244;2022-12-07T03:49:08;2.20;;;1.60;;
10166;SDS011;62970;53.130;8.244;2022-12-07T03:51:49;3.33;;;1.80;;
10166;SDS011;62970;53.130;8.244;2022-12-07T03:54:26;2.57;;;1.43;;
10166;SDS011;62970;53.130;8.244;2022-12-07T03:57:02;3.40;;;1.40;;
10166;SDS011;62970;53.130;8.244;2022-12-07T03:59:34;2.80;;;1.10;;
10166;SDS011;62970;53.130;8.244;2022-12-07T04:02:04;2.93;;;1.50;;
10166;SDS011;62970;53.130;8.244;2022-12-07T04:04:38;2.07;;;1.20;;
10166;SDS011;62970;53.130;8.244;2022-12-07T04:07:07;3.50;;;1.50;;
10166;SDS011;62970;53.130;8.244;2022-12-07T04:09:38;3.00;;;1.40;;
10166;SDS011;62970;53.130;8.244;2022-12-07T04:12:07;4.50;;;1.13;;
10166;SDS011;62970;53.130;8.244;2022-12-07T04:14:36;3.07;;;1.60;;
10166;SDS011;62970;53.130;8.244;2022-12-07T04:17:06;3.40;;;1.57;;
10166;SDS011;62970;53.130;8.244;2022-12-07T04:19:40;3.43;;;1.90;;
10166;SDS011;62970;53.130;8.244;2022-12-07T04:22:10;2.70;;;1.60;;
10166;SDS011;62970;53.130;8.244;2022-12-07T04:24:39;1.90;;;1.50;;
10166;SDS011;62970;53.130;8.244;2022-12-07T04:27:09;2.10;;;1.57;;
10166;SDS011;62970;53.130;8.244;2022-12-07T04:29:39;4.17;;;2.10;;
10166;SDS011;62970;53.130;8.244;2022-12-07T04:32:08;2.93;;;1.70;;
10166;SDS011;62970;53.130;8.244;2022-12-07T04:34:37;2.30;;;1.60;;
10166;SDS011;62970;53.130;8.244;2022-12-07T04:37:09;2.77;;;1.67;;
10166;SDS011;62970;53.130;8.244;2022-12-07T04:39:39;2.00;;;1.77;;
10166;SDS011;62970;53.130;8.244;2022-12-07T04:42:09;2.83;;;2.00;;
10166;SDS011;62970;53.130;8.244;2022-12-07T04:44:40;3.40;;;1.93;;
10166;SDS011;62970;53.130;8.244;2022-12-07T04:47:09;3.00;;;1.87;;
10166;SDS011;62970;53.130;8.244;2022-12-07T04:49:41;2.60;;;1.60;;
10166;SDS011;62970;53.130;8.244;2022-12-07T04:52:11;2.73;;;1.33;;
10166;SDS011;62970;53.130;8.244;2022-12-07T04:54:40;3.00;;;1.47;;
10166;SDS011;62970;53.130;8.244;2022-12-07T04:57:10;2.90;;;1.33;;
10166;SDS011;62970;53.130;8.244;2022-12-07T04:59:39;2.77;;;1.20;;
10166;SDS011;62970;53.130;8.244;2022-12-07T05:02:08;2.27;;;1.27;;
10166;SDS011;62970;53.130;8.244;2022-12-07T05:04:42;2.13;;;0.97;;
10166;SDS011;62970;53.130;8.244;2022-12-07T05:07:11;4.27;;;1.10;;
10166;SDS011;62970;53.130;8.244;2022-12-07T05:09:40;2.03;;;1.03;;
10166;SDS011;62970;53.130;8.244;2022-12-07T05:12:10;2.70;;;1.20;;
10166;SDS011;62970;53.130;8.244;2022-12-07T05:14:40;2.93;;;1.30;;
10166;SDS011;62970;53.130;8.244;2022-12-07T05:17:09;3.00;;;1.20;;
10166;SDS011;62970;53.130;8.244;2022-12-07T05:19:41;2.63;;;1.00;;
10166;SDS011;62970;53.130;8.244;2022-12-07T05:22:11;2.23;;;1.10;;
10166;SDS011;62970;53.130;8.244;2022-12-07T05:24:42;2.83;;;0.90;;
10166;SDS011;62970;53.130;8.244;2022-12-07T05:27:12;1.97;;;1.30;;
10166;SDS011;62970;53.130;8.244;2022-12-07T05:29:41;1.40;;;1.00;;
10166;SDS011;62970;53.130;8.244;2022-12-07T05:32:11;4.03;;;1.43;;
10166;SDS011;62970;53.130;8.244;2022-12-07T05:34:43;4.60;;;1.20;;
10166;SDS011;62970;53.130;8.244;2022-12-07T05:37:13;1.57;;;1.10;;
10166;SDS011;62970;53.130;8.244;2022-12-07T05:39:42;2.90;;;0.97;;
10166;SDS011;62970;53.130;8.244;2022-12-07T05:42:12;1.63;;;1.20;;
10166;SDS011;62970;53.130;8.244;2022-12-07T05:44:45;2.83;;;1.03;;
10166;SDS011;62970;53.130;8.244;2022-12-07T05:47:17;1.63;;;0.80;;
10166;SDS011;62970;53.130;8.244;2022-12-07T05:49:50;3.07;;;1.13;;
10166;SDS011;62970;53.130;8.244;2022-12-07T05:52:20;4.47;;;1.13;;
10166;SDS011;62970;53.130;8.244;2022-12-07T05:54:51;2.33;;;1.10;;
10166;SDS011;62970;53.130;8.244;2022-12-07T05:57:20;1.30;;;1.00;;
10166;SDS011;62970;53.130;8.244;2022-12-07T05:59:49;2.70;;;1.33;;
10166;SDS011;62970;53.130;8.244;2022-12-07T06:02:16;4.90;;;1.23;;
10166;SDS011;62970;53.130;8.244;2022-12-07T06:04:46;1.93;;;1.20;;
10166;SDS011;62970;53.130;8.244;2022-12-07T06:07:19;2.53;;;1.20;;
10166;SDS011;62970;53.130;8.244;2022-12-07T06:09:49;2.00;;;0.93;;
10166;SDS011;62970;53.130;8.244;2022-12-07T06:12:18;2.70;;;1.03;;
10166;SDS011;62970;53.130;8.244;2022-12-07T06:14:59;2.20;;;1.20;;
10166;SDS011;62970;53.130;8.244;2022-12-07T06:17:32;2.57;;;1.10;;
10166;SDS011;62970;53.130;8.244;2022-12-07T06:20:08;3.13;;;1.47;;
10166;SDS011;62970;53.130;8.244;2022-12-07T06:22:40;3.07;;;1.40;;
10166;SDS011;62970;53.130;8.244;2022-12-07T06:25:10;2.97;;;1.10;;
10166;SDS011;62970;53.130;8.244;2022-12-07T06:27:39;3.17;;;0.80;;
10166;SDS011;62970;53.130;8.244;2022-12-07T06:30:10;2.17;;;1.00;;
10166;SDS011;62970;53.130;8.244;2022-12-07T06:32:39;2.67;;;1.10;;
10166;SDS011;62970;53.130;8.244;2022-12-07T06:35:11;2.53;;;1.10;;
10166;SDS011;62970;53.130;8.244;2022-12-07T06:37:40;2.10;;;1.00;;
10166;SDS011;62970;53.130;8.244;2022-12-07T06:40:10;1.53;;;1.00;;
10166;SDS011;62970;53.130;8.244;2022-12-07T06:42:40;1.63;;;0.90;;
10166;SDS011;62970;53.130;8.244;2022-12-07T06:45:12;2.83;;;1.17;;
10166;SDS011;62970;53.130;8.244;2022-12-07T06:47:43;1.30;;;0.80;;
10166;SDS011;62970;53.130;8.244;2022-12-07T06:50:15;1.77;;;0.87;;
10166;SDS011;62970;53.130;8.244;2022-12-07T06:52:44;1.90;;;0.90;;
10166;SDS011;62970;53.130;8.244;2022-12-07T06:55:14;2.53;;;1.00;;
10166;SDS011;62970;53.130;8.244;2022-12-07T06:57:43;2.10;;;1.00;;
10166;SDS011;62970;53.130;8.244;2022-12-07T07:00:14;2.50;;;1.10;;
10166;SDS011;62970;53.130;8.244;2022-12-07T07:02:44;0.80;;;0.80;;
10166;SDS011;62970;53.130;8.244;2022-12-07T07:05:16;3.97;;;1.10;;
10166;SDS011;62970;53.130;8.244;2022-12-07T07:07:46;2.70;;;0.80;;
10166;SDS011;62970;53.130;8.244;2022-12-07T07:10:16;1.27;;;0.90;;
10166;SDS011;62970;53.130;8.244;2022-12-07T07:12:45;1.60;;;0.90;;
10166;SDS011;62970;53.130;8.244;2022-12-07T07:15:15;1.33;;;0.90;;
10166;SDS011;62970;53.130;8.244;2022-12-07T07:17:45;2.10;;;0.80;;
10166;SDS011;62970;53.130;8.244;2022-12-07T07:20:17;2.03;;;0.83;;
10166;SDS011;62970;53.130;8.244;2022-12-07T07:22:47;1.60;;;0.90;;
10166;SDS011;62970;53.130;8.244;2022-12-07T07:25:17;1.73;;;0.70;;
10166;SDS011;62970;53.130;8.244;2022-12-07T07:27:51;2.10;;;0.70;;
10166;SDS011;62970;53.130;8.244;2022-12-07T07:30:22;1.13;;;0.80;;
10166;SDS011;62970;53.130;8.244;2022-12-07T07:32:55;1.23;;;1.13;;
10166;SDS011;62970;53.130;8.244;2022-12-07T07:35:29;1.53;;;1.30;;
10166;SDS011;62970;53.130;8.244;2022-12-07T07:38:01;2.10;;;1.80;;
10166;SDS011;62970;53.130;8.244;2022-12-07T07:40:31;2.33;;;2.00;;
10166;SDS011;62970;53.130;8.244;2022-12-07T07:43:02;2.87;;;2.30;;
10166;SDS011;62970;53.130;8.244;2022-12-07T07:45:31;2.63;;;2.43;;
10166;SDS011;62970;53.130;8.244;2022-12-07T07:48:01;3.50;;;2.50;;
10166;SDS011;62970;53.130;8.244;2022-12-07T07:50:33;4.93;;;2.67;;
10166;SDS011;62970;53.130;8.244;2022-12-07T07:53:04;4.83;;;3.20;;
10166;SDS011;62970;53.130;8.244;2022-12-07T07:55:33;4.50;;;3.73;;
10166;SDS011;62970;53.130;8.244;2022-12-07T07:58:03;3.93;;;3.30;;
10166;SDS011;62970;53.130;8.244;2022-12-07T08:00:32;4.57;;;3.47;;
10166;SDS011;62970;53.130;8.244;2022-12-07T08:03:01;4.60;;;3.07;;
10166;SDS011;62970;53.130;8.244;2022-12-07T08:05:35;4.77;;;2.70;;
10166;SDS011;62970;53.130;8.244;2022-12-07T08:08:05;3.20;;;2.63;;
10166;SDS011;62970;53.130;8.244;2022-12-07T08:10:34;4.90;;;3.07;;
10166;SDS011;62970;53.130;8.244;2022-12-07T08:13:04;3.67;;;3.07;;
10166;SDS011;62970;53.130;8.244;2022-12-07T08:15:40;4.90;;;2.60;;
10166;SDS011;62970;53.130;8.244;2022-12-07T08:18:10;4.50;;;2.60;;
10166;SDS011;62970;53.130;8.244;2022-12-07T08:20:48;5.87;;;2.60;;
10166;SDS011;62970;53.130;8.244;2022-12-07T08:23:17;4.47;;;2.30;;
10166;SDS011;62970;53.130;8.244;2022-12-07T08:25:46;2.70;;;2.37;;
10166;SDS011;62970;53.130;8.244;2022-12-07T08:28:15;3.90;;;2.30;;
10166;SDS011;62970;53.130;8.244;2022-12-07T08:30:45;4.43;;;2.60;;
10166;SDS011;62970;53.130;8.244;2022-12-07T08:33:14;4.87;;;3.00;;
10166;SDS011;62970;53.130;8.244;2022-12-07T08:35:45;3.97;;;2.70;;
10166;SDS011;62970;53.130;8.244;2022-12-07T08:38:15;3.43;;;1.77;;
10166;SDS011;62970;53.130;8.244;2022-12-07T08:40:52;2.33;;;1.90;;
10166;SDS011;62970;53.130;8.244;2022-12-07T08:43:23;3.07;;;1.90;;
10166;SDS011;62970;53.130;8.244;2022-12-07T08:45:54;2.53;;;1.70;;
10166;SDS011;62970;53.130;8.244;2022-12-07T08:48:34;4.00;;;1.80;;
10166;SDS011;62970;53.130;8.244;2022-12-07T08:51:13;4.70;;;1.83;;
10166;SDS011;62970;53.130;8.244;2022-12-07T08:53:50;2.83;;;1.70;;
10166;SDS011;62970;53.130;8.244;2022-12-07T08:56:20;2.37;;;1.57;;
10166;SDS011;62970;53.130;8.244;2022-12-07T08:58:51;3.67;;;2.03;;
10166;SDS011;62970;53.130;8.244;2022-12-07T09:01:21;4.10;;;1.80;;
10166;SDS011;62970;53.130;8.244;2022-12-07T09:03:50;3.60;;;1.90;;
10166;SDS011;62970;53.130;8.244;2022-12-07T09:06:23;4.97;;;2.00;;
10166;SDS011;62970;53.130;8.244;2022-12-07T09:08:54;3.30;;;1.77;;
10166;SDS011;62970;53.130;8.244;2022-12-07T09:11:27;4.23;;;1.87;;
10166;SDS011;62970;53.130;8.244;2022-12-07T09:13:57;3.53;;;1.60;;
10166;SDS011;62970;53.130;8.244;2022-12-07T09:16:26;2.83;;;1.60;;
10166;SDS011;62970;53.130;8.244;2022-12-07T09:18:56;3.80;;;1.67;;
10166;SDS011;62970;53.130;8.244;2022-12-07T09:21:28;1.63;;;1.50;;
10166;SDS011;62970;53.130;8.244;2022-12-07T09:24:00;1.70;;;1.47;;
10166;SDS011;62970;53.130;8.244;2022-12-07T09:26:30;1.83;;;1.57;;
10166;SDS011;62970;53.130;8.244;2022-12-07T09:29:03;2.83;;;1.70;;
10166;SDS011;62970;53.130;8.244;2022-12-07T09:31:35;1.87;;;1.60;;
10166;SDS011;62970;53.130;8.244;2022-12-07T09:34:05;3.40;;;1.70;;
10166;SDS011;62970;53.130;8.244;2022-12-07T09:36:37;2.77;;;1.80;;
10166;SDS011;62970;53.130;8.244;2022-12-07T09:39:07;3.47;;;1.80;;
10166;SDS011;62970;53.130;8.244;2022-12-07T09:41:37;3.37;;;1.40;;
10166;SDS011;62970;53.130;8.244;2022-12-07T09:44:10;3.73;;;1.50;;
10166;SDS011;62970;53.130;8.244;2022-12-07T09:46:42;3.60;;;1.40;;
10166;SDS011;62970;53.130;8.244;2022-12-07T09:49:14;5.40;;;2.03;;
10166;SDS011;62970;53.130;8.244;2022-12-07T09:52:01;2.50;;;1.40;;
10166;SDS011;62970;53.130;8.244;2022-12-07T09:54:46;2.83;;;1.60;;
10166;SDS011;62970;53.130;8.244;2022-12-07T09:57:19;2.87;;;1.70;;
10166;SDS011;62970;53.130;8.244;2022-12-07T09:59:57;2.90;;;1.50;;
10166;SDS011;62970;53.130;8.244;2022-12-07T10:02:34;3.77;;;1.87;;
10166;SDS011;62970;53.130;8.244;2022-12-07T10:05:07;4.13;;;1.50;;
10166;SDS011;62970;53.130;8.244;2022-12-07T10:07:49;2.47;;;1.70;;
10166;SDS011;62970;53.130;8.244;2022-12-07T10:10:19;5.13;;;1.60;;
10166;SDS011;62970;53.130;8.244;2022-12-07T10:12:56;3.67;;;1.50;;
10166;SDS011;62970;53.130;8.244;2022-12-07T10:15:41;3.23;;;1.70;;
10166;SDS011;62970;53.130;8.244;2022-12-07T10:18:25;3.50;;;1.77;;
10166;SDS011;62970;53.130;8.244;2022-12-07T10:21:00;3.50;;;1.70;;
10166;SDS011;62970;53.130;8.244;2022-12-07T10:23:38;4.17;;;1.73;;
10166;SDS011;62970;53.130;8.244;2022-12-07T10:26:28;1.90;;;1.40;;
10166;SDS011;62970;53.130;8.244;2022-12-07T10:29:04;3.20;;;2.00;;
10166;SDS011;62970;53.130;8.244;2022-12-07T10:31:45;2.93;;;1.30;;
10166;SDS011;62970;53.130;8.244;2022-12-07T10:34:20;5.63;;;1.50;;
10166;SDS011;62970;53.130;8.244;2022-12-07T10:37:06;4.77;;;1.40;;
10166;SDS011;62970;53.130;8.244;2022-12-07T10:39:48;6.23;;;1.40;;
10166;SDS011;62970;53.130;8.244;2022-12-07T10:42:20;3.57;;;1.30;;
10166;SDS011;62970;53.130;8.244;2022-12-07T10:45:06;3.10;;;1.30;;
10166;SDS011;62970;53.130;8.244;2022-12-07T10:47:42;3.13;;;1.30;;
10166;SDS011;62970;53.130;8.244;2022-12-07T10:53:22;3.13;;;1.57;;
10166;SDS011;62970;53.130;8.244;2022-12-07T10:56:29;3.00;;;1.50;;
10166;SDS011;62970;53.130;8.244;2022-12-07T10:59:32;2.27;;;1.20;;
10166;SDS011;62970;53.130;8.244;2022-12-07T11:02:23;2.37;;;1.10;;
10166;SDS011;62970;53.130;8.244;2022-12-07T11:05:33;2.80;;;1.10;;
10166;SDS011;62970;53.130;8.244;2022-12-07T11:08:13;1.83;;;0.93;;
10166;SDS011;62970;53.130;8.244;2022-12-07T11:11:09;2.53;;;1.10;;
10166;SDS011;62970;53.130;8.244;2022-12-07T11:13:47;2.90;;;1.10;;
10166;SDS011;62970;53.130;8.244;2022-12-07T11:16:24;4.57;;;1.40;;
10166;SDS011;62970;53.130;8.244;2022-12-07T11:19:11;2.67;;;1.13;;
10166;SDS011;62970;53.130;8.244;2022-12-07T11:21:57;4.00;;;1.10;;
10166;SDS011;62970;53.130;8.244;2022-12-07T11:24:35;1.40;;;1.17;;
10166;SDS011;62970;53.130;8.244;2022-12-07T11:27:19;3.57;;;1.60;;
10166;SDS011;62970;53.130;8.244;2022-12-07T11:30:08;3.20;;;1.13;;
10166;SDS011;62970;53.130;8.244;2022-12-07T11:32:50;4.37;;;1.73;;
10166;SDS011;62970;53.130;8.244;2022-12-07T11:35:44;4.87;;;1.70;;
10166;SDS011;62970;53.130;8.244;2022-12-07T11:38:26;4.23;;;1.50;;
10166;SDS011;62970;53.130;8.244;2022-12-07T11:41:10;5.23;;;2.10;;
10166;SDS011;62970;53.130;8.244;2022-12-07T11:43:50;3.57;;;1.63;;
10166;SDS011;62970;53.130;8.244;2022-12-07T11:46:27;6.60;;;1.60;;
10166;SDS011;62970;53.130;8.244;2022-12-07T11:49:12;4.93;;;1.70;;
10166;SDS011;62970;53.130;8.244;2022-12-07T11:51:51;3.23;;;1.80;;
10166;SDS011;62970;53.130;8.244;2022-12-07T11:54:27;3.13;;;1.60;;
10166;SDS011;62970;53.130;8.244;2022-12-07T11:57:03;4.33;;;1.60;;
10166;SDS011;62970;53.130;8.244;2022-12-07T11:59:43;4.10;;;1.87;;
10166;SDS011;62970;53.130;8.244;2022-12-07T12:02:24;4.40;;;2.33;;
10166;SDS011;62970;53.130;8.244;2022-12-07T12:05:05;4.23;;;1.87;;
10166;SDS011;62970;53.130;8.244;2022-12-07T12:07:45;5.97;;;2.30;;
10166;SDS011;62970;53.130;8.244;2022-12-07T12:10:23;5.40;;;2.80;;
10166;SDS011;62970;53.130;8.244;2022-12-07T12:13:10;5.47;;;2.63;;
10166;SDS011;62970;53.130;8.244;2022-12-07T12:16:39;4.20;;;2.37;;
10166;SDS011;62970;53.130;8.244;2022-12-07T12:19:38;4.27;;;1.70;;
10166;SDS011;62970;53.130;8.244;2022-12-07T12:22:26;4.43;;;1.90;;
10166;SDS011;62970;53.130;8.244;2022-12-07T12:25:09;3.43;;;1.63;;
10166;SDS011;62970;53.130;8.244;2022-12-07T12:27:49;5.40;;;1.73;;
10166;SDS011;62970;53.130;8.244;2022-12-07T12:30:25;2.10;;;1.30;;
10166;SDS011;62970;53.130;8.244;2022-12-07T12:33:02;4.27;;;1.67;;
10166;SDS011;62970;53.130;8.244;2022-12-07T12:35:46;3.23;;;1.50;;
10166;SDS011;62970;53.130;8.244;2022-12-07T12:39:08;3.67;;;1.20;;
10166;SDS011;62970;53.130;8.244;2022-12-07T12:47:56;3.47;;;1.53;;
10166;SDS011;62970;53.130;8.244;2022-12-07T12:50:28;2.57;;;1.30;;
10166;SDS011;62970;53.130;8.244;2022-12-07T12:53:05;1.83;;;1.10;;
10166;SDS011;62970;53.130;8.244;2022-12-07T13:01:51;2.40;;;1.20;;
10166;SDS011;62970;53.130;8.244;2022-12-07T13:10:39;3.70;;;1.57;;
10166;SDS011;62970;53.130;8.244;2022-12-07T13:25:33;2.87;;;1.10;;
10166;SDS011;62970;53.130;8.244;2022-12-07T13:28:17;1.77;;;1.00;;
10166;SDS011;62970;53.130;8.244;2022-12-07T13:33:44;3.13;;;0.80;;
10166;SDS011;62970;53.130;8.244;2022-12-07T13:36:19;1.67;;;1.10;;
10166;SDS011;62970;53.130;8.244;2022-12-07T13:38:55;3.63;;;1.10;;
10166;SDS011;62970;53.130;8.244;2022-12-07T13:41:28;2.00;;;1.20;;
10166;SDS011;62970;53.130;8.244;2022-12-07T13:44:01;3.03;;;1.10;;
10166;SDS011;62970;53.130;8.244;2022-12-07T13:46:41;2.17;;;1.30;;
10166;SDS011;62970;53.130;8.244;2022-12-07T13:49:21;4.17;;;1.57;;
10166;SDS011;62970;53.130;8.244;2022-12-07T13:51:53;4.17;;;1.60;;
10166;SDS011;62970;53.130;8.244;2022-12-07T13:54:43;3.73;;;1.70;;
10166;SDS011;62970;53.130;8.244;2022-12-07T13:57:17;3.73;;;1.53;;
10166;SDS011;62970;53.130;8.244;2022-12-07T13:59:47;3.63;;;1.50;;
10166;SDS011;62970;53.130;8.244;2022-12-07T14:02:17;1.47;;;1.20;;
10166;SDS011;62970;53.130;8.244;2022-12-07T14:04:49;2.60;;;1.33;;
10166;SDS011;62970;53.130;8.244;2022-12-07T14:07:22;4.70;;;2.20;;
10166;SDS011;62970;53.130;8.244;2022-12-07T14:09:58;4.27;;;2.10;;
10166;SDS011;62970;53.130;8.244;2022-12-07T14:12:32;3.57;;;1.43;;
10166;SDS011;62970;53.130;8.244;2022-12-07T14:15:15;1.20;;;1.10;;
10166;SDS011;62970;53.130;8.244;2022-12-07T14:17:50;1.87;;;1.00;;
10166;SDS011;62970;53.130;8.244;2022-12-07T14:20:31;2.13;;;1.00;;
10166;SDS011;62970;53.130;8.244;2022-12-07T14:23:03;1.03;;;0.80;;
10166;SDS011;62970;53.130;8.244;2022-12-07T14:25:46;1.27;;;0.87;;
10166;SDS011;62970;53.130;8.244;2022-12-07T14:28:30;2.03;;;0.80;;
10166;SDS011;62970;53.130;8.244;2022-12-07T14:31:07;1.37;;;1.00;;
10166;SDS011;62970;53.130;8.244;2022-12-07T14:33:40;1.40;;;1.20;;
10166;SDS011;62970;53.130;8.244;2022-12-07T14:36:10;1.63;;;1.20;;
10166;SDS011;62970;53.130;8.244;2022-12-07T14:38:43;2.80;;;1.10;;
10166;SDS011;62970;53.130;8.244;2022-12-07T14:41:15;1.50;;;0.80;;
10166;SDS011;62970;53.130;8.244;2022-12-07T14:44:07;1.27;;;0.83;;
10166;SDS011;62970;53.130;8.244;2022-12-07T14:46:39;0.90;;;0.90;;
10166;SDS011;62970;53.130;8.244;2022-12-07T14:49:11;1.57;;;0.93;;
10166;SDS011;62970;53.130;8.244;2022-12-07T14:51:40;1.80;;;0.90;;
10166;SDS011;62970;53.130;8.244;2022-12-07T14:54:15;1.10;;;1.00;;
10166;SDS011;62970;53.130;8.244;2022-12-07T14:56:47;1.43;;;1.13;;
10166;SDS011;62970;53.130;8.244;2022-12-07T14:59:19;1.43;;;1.30;;
10166;SDS011;62970;53.130;8.244;2022-12-07T15:01:50;1.10;;;0.90;;
10166;SDS011;62970;53.130;8.244;2022-12-07T15:04:20;1.20;;;1.10;;
10166;SDS011;62970;53.130;8.244;2022-12-07T15:06:56;1.80;;;1.30;;
10166;SDS011;62970;53.130;8.244;2022-12-07T15:09:29;2.40;;;1.30;;
10166;SDS011;62970;53.130;8.244;2022-12-07T15:11:59;2.10;;;1.07;;
10166;SDS011;62970;53.130;8.244;2022-12-07T15:14:31;2.27;;;1.30;;
10166;SDS011;62970;53.130;8.244;2022-12-07T15:17:01;4.03;;;3.10;;
10166;SDS011;62970;53.130;8.244;2022-12-07T15:19:32;5.80;;;5.20;;
10166;SDS011;62970;53.130;8.244;2022-12-07T15:22:04;6.30;;;4.73;;
10166;SDS011;62970;53.130;8.244;2022-12-07T15:24:36;5.83;;;4.40;;
10166;SDS011;62970;53.130;8.244;2022-12-07T15:27:05;4.50;;;3.50;;
10166;SDS011;62970;53.130;8.244;2022-12-07T15:29:38;6.10;;;3.30;;
10166;SDS011;62970;53.130;8.244;2022-12-07T15:32:08;4.00;;;2.97;;
10166;SDS011;62970;53.130;8.244;2022-12-07T15:34:37;4.83;;;3.70;;
10166;SDS011;62970;53.130;8.244;2022-12-07T15:37:07;5.40;;;4.10;;
10166;SDS011;62970;53.130;8.244;2022-12-07T15:39:37;4.47;;;4.07;;
10166;SDS011;62970;53.130;8.244;2022-12-07T15:42:06;5.13;;;3.90;;
10166;SDS011;62970;53.130;8.244;2022-12-07T15:44:38;4.47;;;3.17;;
10166;SDS011;62970;53.130;8.244;2022-12-07T15:47:20;3.80;;;2.93;;
10166;SDS011;62970;53.130;8.244;2022-12-07T15:49:49;4.80;;;3.27;;
10166;SDS011;62970;53.130;8.244;2022-12-07T15:52:19;4.60;;;3.77;;
10166;SDS011;62970;53.130;8.244;2022-12-07T15:54:49;5.20;;;3.60;;
10166;SDS011;62970;53.130;8.244;2022-12-07T15:57:18;4.17;;;3.60;;
10166;SDS011;62970;53.130;8.244;2022-12-07T15:59:50;5.73;;;3.57;;
10166;SDS011;62970;53.130;8.244;2022-12-07T16:02:21;4.43;;;2.97;;
10166;SDS011;62970;53.130;8.244;2022-12-07T16:04:51;2.80;;;2.40;;
10166;SDS011;62970;53.130;8.244;2022-12-07T16:07:21;2.20;;;1.97;;
10166;SDS011;62970;53.130;8.244;2022-12-07T16:09:52;3.07;;;1.90;;
10166;SDS011;62970;53.130;8.244;2022-12-07T16:12:21;2.83;;;1.60;;